createdAt,value
2022-09-03T00:01:53.759Z,100293.03
2022-09-03T00:07:02.030Z,100298.91
2022-09-03T00:12:10.647Z,100291.22
2022-09-03T00:17:16.999Z,100287.75
2022-09-03T00:22:22.958Z,100284.38
2022-09-03T00:27:28.083Z,100287.59
2022-09-03T00:32:39.046Z,100287.94
2022-09-03T00:37:41.942Z,100276.59
2022-09-03T00:42:49.875Z,100287.50
2022-09-03T00:48:07.878Z,100285.66
2022-09-03T00:53:14.725Z,100292.47
2022-09-03T00:58:29.759Z,100292.81
2022-09-03T01:03:39.946Z,100290.28
2022-09-03T01:08:53.330Z,100284.06
2022-09-03T01:14:02.500Z,100286.41
2022-09-03T01:19:13.386Z,100281.22
2022-09-03T01:24:49.639Z,100285.66
2022-09-03T01:29:57.494Z,100295.09
2022-09-03T01:35:04.889Z,100286.03
2022-09-03T01:40:14.702Z,100291.84
2022-09-03T01:45:35.644Z,100293.50
2022-09-03T01:50:45.744Z,100292.97
2022-09-03T01:55:59.895Z,100291.16
2022-09-03T02:01:06.904Z,100287.22
2022-09-03T02:06:10.064Z,100294.88
2022-09-03T02:11:13.033Z,100292.69
2022-09-03T02:16:21.181Z,100288.59
2022-09-03T02:21:25.984Z,100285.66
2022-09-03T02:26:28.758Z,100289.84
2022-09-03T02:31:32.849Z,100286.09
2022-09-03T02:36:38.995Z,100293.25
2022-09-03T02:41:41.878Z,100289.47
2022-09-03T02:46:49.833Z,100287.72
2022-09-03T02:51:52.631Z,100288.91
2022-09-03T02:56:55.699Z,100286.69
2022-09-03T03:02:01.270Z,100285.91
2022-09-03T03:07:04.259Z,100279.31
2022-09-03T03:12:07.260Z,100276.06
2022-09-03T03:17:11.338Z,100270.34
2022-09-03T03:22:14.247Z,100269.56
2022-09-03T03:27:17.227Z,100278.16
2022-09-03T03:32:21.454Z,100272.22
2022-09-03T03:37:24.170Z,100279.88
2022-09-03T03:42:26.881Z,100280.69
2022-09-03T03:47:32.195Z,100291.25
2022-09-03T03:52:35.058Z,100293.88
2022-09-03T03:57:37.787Z,100286.16
2022-09-03T04:02:41.898Z,100272.28
2022-09-03T04:07:45.005Z,100273.22
2022-09-03T04:12:47.788Z,100267.13
2022-09-03T04:17:52.870Z,100271.94
2022-09-03T04:22:55.622Z,100267.00
2022-09-03T04:27:58.652Z,100259.09
2022-09-03T04:33:03.178Z,100260.41
2022-09-03T04:38:05.939Z,100266.69
2022-09-03T04:43:08.741Z,100275.13
2022-09-03T04:48:13.585Z,100270.81
2022-09-03T04:53:16.305Z,100273.47
2022-09-03T04:58:19.121Z,100277.38
2022-09-03T05:03:23.578Z,100282.19
2022-09-03T05:08:26.575Z,100275.13
2022-09-03T05:13:29.550Z,100280.53
2022-09-03T05:18:35.740Z,100282.13
2022-09-03T05:23:39.966Z,100282.78
2022-09-03T05:28:44.080Z,100284.72
2022-09-03T05:33:49.679Z,100285.97
2022-09-03T05:38:54.288Z,100291.88
2022-09-03T05:43:59.434Z,100290.66
2022-09-03T05:49:05.498Z,100295.72
2022-09-03T05:54:09.179Z,100283.06
2022-09-03T05:59:13.701Z,100289.13
2022-09-03T06:04:17.891Z,100296.72
2022-09-03T06:09:23.148Z,100297.00
2022-09-03T06:14:26.762Z,100294.38
2022-09-03T06:19:30.978Z,100303.88
2022-09-03T06:24:33.890Z,100308.63
2022-09-03T06:29:39.868Z,100299.63
2022-09-03T06:34:44.107Z,100301.72
2022-09-03T06:39:46.997Z,100303.66
2022-09-03T06:44:51.318Z,100302.41
2022-09-03T06:49:55.380Z,100302.31
2022-09-03T06:54:58.425Z,100300.59
2022-09-03T07:00:02.631Z,100293.44
2022-09-03T07:05:07.747Z,100304.94
2022-09-03T07:10:12.065Z,100300.44
2022-09-03T07:15:15.011Z,100305.47
2022-09-03T07:20:20.641Z,100305.09
2022-09-03T07:25:23.524Z,100299.59
2022-09-03T07:30:26.655Z,100297.09
2022-09-03T07:35:30.878Z,100296.22
2022-09-03T07:40:34.162Z,100290.28
2022-09-03T07:45:38.533Z,100297.53
2022-09-03T07:50:42.893Z,100289.91
2022-09-03T07:55:45.694Z,100297.78
2022-09-03T08:00:49.059Z,100300.56
2022-09-03T08:05:53.322Z,100295.97
2022-09-03T08:10:56.750Z,100300.63
2022-09-03T08:16:01.324Z,100297.41
2022-09-03T08:21:07.503Z,100297.72
2022-09-03T08:26:10.669Z,100283.72
2022-09-03T08:31:16.206Z,100280.50
2022-09-03T08:36:22.837Z,100281.81
2022-09-03T08:41:30.961Z,100279.19
2022-09-03T08:46:42.737Z,100278.03
2022-09-03T08:51:49.111Z,100283.16
2022-09-03T08:56:52.579Z,100287.50
2022-09-03T09:01:58.651Z,100281.56
2022-09-03T09:07:08.251Z,100268.88
2022-09-03T09:12:17.667Z,100270.56
2022-09-03T09:17:32.600Z,100270.75
2022-09-03T09:22:39.915Z,100260.53
2022-09-03T09:27:51.630Z,100252.31
2022-09-03T09:32:56.202Z,100244.50
2022-09-03T09:38:00.526Z,100244.75
2022-09-03T09:43:12.274Z,100242.88
2022-09-03T09:48:21.176Z,100237.50
2022-09-03T09:53:28.147Z,100231.09
2022-09-03T09:58:33.188Z,100222.81
2022-09-03T10:03:36.181Z,100225.03
2022-09-03T10:08:41.722Z,100223.97
2022-09-03T10:13:48.032Z,100223.91
2022-09-03T10:18:56.230Z,100223.44
2022-09-03T10:24:07.398Z,100219.59
2022-09-03T10:29:10.522Z,100216.25
2022-09-03T10:34:18.711Z,100206.44
2022-09-03T10:39:24.774Z,100209.16
2022-09-03T10:44:43.727Z,100203.06
2022-09-03T10:49:52.000Z,100203.00
2022-09-03T10:55:14.009Z,100196.19
2022-09-03T11:00:18.212Z,100193.56
2022-09-03T11:05:26.748Z,100180.22
2022-09-03T11:10:32.398Z,100181.34
2022-09-03T11:15:39.228Z,100176.03
2022-09-03T11:20:43.023Z,100170.38
2022-09-03T11:25:51.011Z,100173.13
2022-09-03T11:31:07.019Z,100164.09
2022-09-03T11:36:12.339Z,100165.91
2022-09-03T11:41:26.154Z,100170.53
2022-09-03T11:46:31.746Z,100162.69
2022-09-03T11:51:37.818Z,100159.91
2022-09-03T11:56:43.758Z,100157.72
2022-09-03T12:01:53.180Z,100154.03
2022-09-03T12:07:04.641Z,100145.81
2022-09-03T12:12:15.921Z,100130.41
2022-09-03T12:17:28.930Z,100120.50
2022-09-03T12:22:32.218Z,100133.16
2022-09-03T12:27:36.287Z,100124.19
2022-09-03T12:32:39.357Z,100119.38
2022-09-03T12:48:44.152Z,100105.00
2022-09-03T12:53:47.143Z,100091.53
2022-09-03T12:58:56.052Z,100087.25
2022-09-03T13:04:04.809Z,100084.25
2022-09-03T13:09:09.404Z,100090.19
2022-09-03T13:14:14.845Z,100082.56
2022-09-03T13:19:23.370Z,100083.34
2022-09-03T13:24:54.405Z,100076.03
2022-09-03T13:30:05.400Z,100059.28
2022-09-03T13:35:11.912Z,100067.41
2022-09-03T13:40:23.251Z,100057.34
2022-09-03T13:45:32.377Z,100051.75
2022-09-03T13:50:42.602Z,100051.53
2022-09-03T13:55:48.402Z,100055.06
2022-09-03T14:00:56.003Z,100046.06
2022-09-03T14:06:05.679Z,100050.50
2022-09-03T14:11:20.868Z,100046.28
2022-09-03T14:16:32.236Z,100037.09
2022-09-03T14:21:37.418Z,100038.47
2022-09-03T14:26:51.288Z,100045.81
2022-09-03T14:32:16.591Z,100032.91
2022-09-03T14:37:35.045Z,100036.69
2022-09-03T14:42:54.553Z,100040.75
2022-09-03T14:48:09.122Z,100028.75
2022-09-03T14:53:22.458Z,100032.06
2022-09-03T14:58:37.016Z,100035.31
2022-09-03T15:04:17.610Z,100031.19
2022-09-03T15:09:29.101Z,100038.50
2022-09-03T15:14:37.108Z,100035.63
2022-09-03T15:20:07.598Z,100040.75
2022-09-03T15:25:20.594Z,100035.63
2022-09-03T15:30:23.636Z,100030.31
2022-09-03T15:35:40.234Z,100033.41
2022-09-03T15:40:51.550Z,100032.16
2022-09-03T15:45:58.355Z,100026.16
2022-09-03T15:51:11.061Z,100031.56
2022-09-03T15:56:19.774Z,100029.94
2022-09-03T16:01:30.123Z,100026.63
2022-09-03T16:06:40.269Z,100029.78
2022-09-03T16:11:53.685Z,100031.72
2022-09-03T16:17:01.854Z,100033.22
2022-09-03T16:22:12.853Z,100040.69
2022-09-03T16:27:18.864Z,100046.84
2022-09-03T16:32:28.768Z,100047.50
2022-09-03T16:37:39.121Z,100049.19
2022-09-03T16:42:46.138Z,100034.78
2022-09-03T16:47:58.346Z,100040.03
2022-09-03T16:53:09.946Z,100034.81
2022-09-03T16:58:18.938Z,100034.75
2022-09-03T17:03:45.973Z,100035.56
2022-09-03T17:08:58.392Z,100032.78
2022-09-03T17:14:20.702Z,100041.28
2022-09-03T17:19:28.705Z,100044.09
2022-09-03T17:24:38.147Z,100046.06
2022-09-03T17:29:53.761Z,100048.00
2022-09-03T17:35:05.495Z,100053.81
2022-09-03T17:40:20.038Z,100057.84
2022-09-03T17:45:34.104Z,100062.19
2022-09-03T17:50:46.270Z,100062.94
2022-09-03T17:55:55.728Z,100068.47
2022-09-03T18:01:04.242Z,100077.25
2022-09-03T18:06:10.597Z,100080.66
2022-09-03T18:11:16.084Z,100085.13
2022-09-03T18:16:24.265Z,100090.19
2022-09-03T18:21:47.367Z,100095.19
2022-09-03T18:27:17.645Z,100107.03
2022-09-03T18:32:38.221Z,100104.88
2022-09-03T18:37:59.218Z,100105.91
2022-09-03T18:43:28.492Z,100119.13
2022-09-03T18:48:53.026Z,100117.59
2022-09-03T18:54:21.625Z,100125.88
2022-09-03T18:59:57.815Z,100130.94
2022-09-03T19:05:26.643Z,100132.00
2022-09-03T19:10:54.442Z,100131.44
2022-09-03T19:16:21.379Z,100131.06
2022-09-03T19:21:47.360Z,100127.84
2022-09-03T19:27:47.399Z,100126.38
2022-09-03T19:33:04.392Z,100131.13
2022-09-03T19:38:32.601Z,100134.66
2022-09-03T19:43:58.810Z,100146.59
2022-09-03T19:49:28.728Z,100149.91
2022-09-03T19:54:50.012Z,100144.38
2022-09-03T20:00:11.195Z,100152.41
2022-09-03T20:05:39.484Z,100150.38
2022-09-03T20:10:43.625Z,100157.16
2022-09-03T20:15:53.287Z,100152.66
2022-09-03T20:21:06.096Z,100169.25
2022-09-03T20:26:17.092Z,100163.53
2022-09-03T20:31:25.025Z,100173.41
2022-09-03T20:36:35.076Z,100175.88
2022-09-03T20:41:46.776Z,100179.59
2022-09-03T20:46:58.227Z,100174.03
2022-09-03T20:52:07.437Z,100187.19
2022-09-03T20:57:24.423Z,100180.81
2022-09-03T21:02:37.810Z,100180.63
2022-09-03T21:07:51.764Z,100183.09
2022-09-03T21:13:00.512Z,100184.75
2022-09-03T21:18:08.191Z,100180.84
2022-09-03T21:23:19.417Z,100184.16
2022-09-03T21:28:25.126Z,100192.53
2022-09-03T21:33:30.068Z,100192.94
2022-09-03T21:38:35.925Z,100197.84
2022-09-03T21:43:43.837Z,100198.25
2022-09-03T21:48:52.183Z,100197.03
2022-09-03T21:53:59.223Z,100194.81
2022-09-03T21:59:09.203Z,100205.63
2022-09-03T22:04:12.449Z,100205.00
2022-09-03T22:09:21.057Z,100213.63
2022-09-03T22:14:24.755Z,100213.63
2022-09-03T22:19:28.012Z,100217.53
2022-09-03T22:24:39.451Z,100218.94
2022-09-03T22:29:49.207Z,100217.53
2022-09-03T22:35:02.801Z,100203.19
2022-09-03T22:40:13.109Z,100211.97
2022-09-03T22:45:34.817Z,100211.34
2022-09-03T22:50:43.769Z,100220.19
2022-09-03T22:55:53.266Z,100208.09
2022-09-03T23:01:00.389Z,100208.09
2022-09-03T23:06:07.166Z,100206.25
2022-09-03T23:11:26.259Z,100205.84
2022-09-03T23:16:37.758Z,100213.63
2022-09-03T23:21:42.323Z,100213.63
2022-09-03T23:26:48.740Z,100220.19
2022-09-03T23:31:52.814Z,100219.78
2022-09-03T23:37:32.027Z,100224.06
2022-09-03T23:42:42.864Z,100221.41
2022-09-03T23:47:53.915Z,100224.25
2022-09-03T23:53:08.926Z,100215.88
2022-09-03T23:58:21.158Z,100225.69
